createdAt,value
2019-04-10T00:01:53.210Z,8.60
2019-04-10T00:04:21.746Z,8.50
2019-04-10T00:06:50.206Z,8.50
2019-04-10T00:09:19.576Z,8.50
2019-04-10T00:11:48.046Z,8.50
2019-04-10T00:14:16.539Z,8.40
2019-04-10T00:16:45.014Z,8.40
2019-04-10T00:19:13.484Z,8.40
2019-04-10T00:21:41.992Z,8.40
2019-04-10T00:24:11.507Z,8.20
2019-04-10T00:26:41.624Z,8.10
2019-04-10T00:29:10.548Z,8.00
2019-04-10T00:31:40.205Z,8.00
2019-04-10T00:34:09.444Z,8.10
2019-04-10T00:36:39.336Z,8.10
2019-04-10T00:39:10.507Z,8.00
2019-04-10T00:41:39.164Z,8.10
2019-04-10T00:44:07.873Z,8.10
2019-04-10T00:46:36.531Z,8.20
2019-04-10T00:49:05.170Z,8.10
2019-04-10T00:51:35.257Z,8.20
2019-04-10T00:54:03.888Z,8.20
2019-04-10T00:56:32.603Z,8.20
2019-04-10T00:59:01.769Z,8.20
2019-04-10T01:01:30.518Z,8.10
2019-04-10T01:04:00.134Z,8.20
2019-04-10T01:06:30.161Z,8.10
2019-04-10T01:09:02.163Z,8.10
2019-04-10T01:11:32.834Z,8.20
2019-04-10T01:14:01.749Z,8.10
2019-04-10T01:16:31.352Z,8.10
2019-04-10T01:19:00.322Z,8.00
2019-04-10T01:21:29.132Z,8.00
2019-04-10T01:23:57.969Z,7.80
2019-04-10T01:26:28.125Z,7.80
2019-04-10T01:29:00.873Z,7.70
2019-04-10T01:31:30.918Z,7.70
2019-04-10T01:33:59.508Z,7.60
2019-04-10T01:36:29.001Z,7.50
2019-04-10T01:38:57.859Z,7.40
2019-04-10T01:41:29.878Z,7.40
2019-04-10T01:44:11.642Z,7.30
2019-04-10T01:46:42.392Z,7.30
2019-04-10T01:49:13.493Z,7.30
2019-04-10T01:51:45.587Z,7.20
2019-04-10T01:54:17.289Z,7.10
2019-04-10T01:56:46.112Z,7.20
2019-04-10T02:00:33.142Z,7.20
2019-04-10T02:02:05.607Z,7.10
2019-04-10T02:04:35.134Z,7.00
2019-04-10T02:07:05.495Z,7.00
2019-04-10T02:09:35.093Z,6.90
2019-04-10T02:12:04.126Z,6.80
2019-04-10T02:14:33.301Z,6.80
2019-04-10T02:17:04.539Z,6.70
2019-04-10T02:19:33.111Z,6.60
2019-04-10T02:22:02.400Z,6.50
2019-04-10T02:24:31.622Z,6.50
2019-04-10T02:27:00.314Z,6.50
2019-04-10T02:29:28.943Z,6.50
2019-04-10T02:31:57.578Z,6.30
2019-04-10T02:34:26.115Z,6.20
2019-04-10T02:36:55.271Z,6.20
2019-04-10T02:39:32.362Z,6.20
2019-04-10T02:41:54.537Z,6.20
2019-04-10T02:44:25.988Z,6.10
2019-04-10T02:46:55.485Z,6.10
2019-04-10T02:49:24.693Z,6.10
2019-04-10T02:51:54.842Z,6.10
2019-04-10T02:54:24.957Z,6.10
2019-04-10T02:56:54.828Z,6.00
2019-04-10T02:59:24.033Z,6.00
2019-04-10T03:01:52.567Z,6.00
2019-04-10T03:04:21.176Z,6.00
2019-04-10T03:06:51.512Z,6.10
2019-04-10T03:09:40.553Z,6.00
2019-04-10T03:11:51.933Z,5.90
2019-04-10T03:14:21.177Z,5.90
2019-04-10T03:16:51.489Z,5.80
2019-04-10T03:19:21.328Z,5.90
2019-04-10T03:21:51.377Z,5.80
2019-04-10T03:24:21.194Z,5.70
2019-04-10T03:26:50.089Z,5.60
2019-04-10T03:29:18.646Z,5.60
2019-04-10T03:31:49.878Z,5.60
2019-04-10T03:34:28.961Z,5.60
2019-04-10T03:37:05.433Z,5.70
2019-04-10T03:39:38.596Z,5.70
2019-04-10T03:42:07.128Z,5.60
2019-04-10T03:44:35.716Z,5.60
2019-04-10T03:47:04.350Z,5.60
2019-04-10T03:49:33.933Z,5.60
2019-04-10T03:52:03.131Z,5.50
2019-04-10T03:54:32.236Z,5.40
2019-04-10T03:57:00.928Z,5.40
2019-04-10T03:59:30.519Z,5.50
2019-04-10T04:01:59.670Z,5.40
2019-04-10T04:04:29.211Z,5.40
2019-04-10T04:06:58.310Z,5.30
2019-04-10T04:09:27.290Z,5.30
2019-04-10T04:11:55.966Z,5.30
2019-04-10T04:14:24.512Z,5.30
2019-04-10T04:16:52.998Z,5.30
2019-04-10T04:19:22.044Z,5.20
2019-04-10T04:21:50.830Z,5.20
2019-04-10T04:24:21.219Z,5.10
2019-04-10T04:26:50.810Z,5.10
2019-04-10T04:29:20.559Z,5.00
2019-04-10T04:31:50.582Z,5.00
2019-04-10T04:34:19.450Z,4.90
2019-04-10T04:36:49.195Z,4.90
2019-04-10T04:39:25.684Z,4.80
2019-04-10T04:41:48.578Z,4.90
2019-04-10T04:44:18.081Z,4.90
2019-04-10T04:46:46.684Z,4.80
2019-04-10T04:49:15.725Z,4.80
2019-04-10T04:51:45.530Z,4.80
2019-04-10T04:54:17.067Z,4.70
2019-04-10T04:56:46.447Z,4.70
2019-04-10T04:59:17.052Z,4.70
2019-04-10T05:01:45.594Z,4.60
2019-04-10T05:04:15.176Z,4.70
2019-04-10T05:06:43.846Z,4.60
2019-04-10T05:09:17.047Z,4.60
2019-04-10T05:11:47.185Z,4.60
2019-04-10T05:14:17.530Z,4.70
2019-04-10T05:16:46.012Z,4.60
2019-04-10T05:19:14.508Z,4.60
2019-04-10T05:21:43.609Z,4.60
2019-04-10T05:24:12.213Z,4.50
2019-04-10T05:26:40.797Z,4.50
2019-04-10T05:29:09.292Z,4.50
2019-04-10T05:31:37.793Z,4.50
2019-04-10T05:34:06.311Z,4.50
2019-04-10T05:36:34.793Z,4.50
2019-04-10T05:39:06.270Z,4.40
2019-04-10T05:41:34.911Z,4.40
2019-04-10T05:44:03.561Z,4.50
2019-04-10T05:46:32.585Z,4.50
2019-04-10T05:49:01.194Z,4.50
2019-04-10T05:51:29.656Z,4.60
2019-04-10T05:53:58.193Z,4.60
2019-04-10T05:56:26.677Z,4.50
2019-04-10T05:58:55.169Z,4.60
2019-04-10T06:01:32.333Z,4.50
2019-04-10T06:03:54.626Z,4.50
2019-04-10T06:06:24.165Z,4.60
2019-04-10T06:08:52.997Z,4.60
2019-04-10T06:11:22.483Z,4.60
2019-04-10T06:13:51.128Z,4.60
2019-04-10T06:16:20.190Z,4.60
2019-04-10T06:18:48.701Z,4.60
2019-04-10T06:21:17.218Z,4.60
2019-04-10T06:23:45.858Z,4.70
2019-04-10T06:26:16.527Z,4.80
2019-04-10T06:28:50.481Z,4.80
2019-04-10T06:31:19.186Z,4.90
2019-04-10T06:33:48.555Z,4.90
2019-04-10T06:36:17.523Z,4.90
2019-04-10T06:38:46.065Z,5.00
2019-04-10T06:41:16.233Z,5.10
2019-04-10T06:43:45.401Z,5.10
2019-04-10T06:46:14.544Z,5.20
2019-04-10T06:48:44.265Z,5.30
2019-04-10T06:51:13.058Z,5.30
2019-04-10T06:53:41.531Z,5.40
2019-04-10T06:56:11.577Z,5.40
2019-04-10T06:58:41.075Z,5.40
2019-04-10T07:01:10.426Z,5.50
2019-04-10T07:03:51.880Z,5.70
2019-04-10T07:06:15.576Z,5.80
2019-04-10T07:08:40.285Z,5.70
2019-04-10T07:11:12.772Z,5.70
2019-04-10T07:13:41.624Z,5.60
2019-04-10T07:16:13.586Z,5.70
2019-04-10T07:18:49.458Z,6.00
2019-04-10T07:21:20.066Z,5.80
2019-04-10T07:23:49.087Z,5.90
2019-04-10T07:26:25.671Z,5.90
2019-04-10T07:28:49.354Z,5.90
2019-04-10T07:31:19.404Z,6.10
2019-04-10T07:33:50.383Z,6.30
2019-04-10T07:36:20.360Z,6.20
2019-04-10T07:38:49.404Z,6.10
2019-04-10T07:41:21.360Z,6.50
2019-04-10T07:43:52.823Z,6.70
2019-04-10T07:46:18.685Z,6.90
2019-04-10T07:48:47.556Z,6.60
2019-04-10T07:51:16.962Z,6.70
2019-04-10T07:53:46.918Z,6.70
2019-04-10T07:56:19.203Z,6.80
2019-04-10T07:58:46.060Z,6.80
2019-04-10T08:01:16.462Z,7.20
2019-04-10T08:03:46.438Z,7.30
2019-04-10T08:06:15.448Z,7.50
2019-04-10T08:08:44.802Z,7.60
2019-04-10T08:11:13.443Z,7.30
2019-04-10T08:13:41.923Z,7.10
2019-04-10T08:16:10.634Z,7.50
2019-04-10T08:18:39.504Z,7.50
2019-04-10T08:21:08.098Z,7.20
2019-04-10T08:23:36.557Z,7.50
2019-04-10T08:26:05.734Z,7.70
2019-04-10T08:28:41.195Z,8.10
2019-04-10T08:31:09.799Z,8.30
2019-04-10T08:33:38.639Z,7.80
2019-04-10T08:36:07.832Z,8.00
2019-04-10T08:38:36.519Z,8.20
2019-04-10T08:41:05.500Z,8.30
2019-04-10T08:43:34.223Z,8.60
2019-04-10T08:46:03.504Z,8.20
2019-04-10T08:48:33.094Z,8.10
2019-04-10T08:51:04.683Z,8.00
2019-04-10T08:53:34.105Z,8.10
2019-04-10T08:56:04.473Z,8.30
2019-04-10T08:58:33.235Z,8.50
2019-04-10T09:01:01.807Z,8.40
2019-04-10T09:03:30.914Z,9.10
2019-04-10T09:05:59.486Z,8.70
2019-04-10T09:08:28.832Z,8.70
2019-04-10T09:11:14.686Z,8.80
2019-04-10T09:13:30.713Z,9.30
2019-04-10T09:16:02.578Z,9.20
2019-04-10T09:18:47.570Z,9.00
2019-04-10T09:21:15.354Z,8.70
2019-04-10T09:23:50.284Z,8.30
2019-04-10T09:26:14.169Z,8.80
2019-04-10T09:28:42.638Z,8.70
2019-04-10T09:31:15.768Z,8.90
2019-04-10T09:33:45.334Z,9.00
2019-04-10T09:36:13.850Z,9.30
2019-04-10T09:38:43.934Z,9.40
2019-04-10T09:41:13.996Z,9.10
2019-04-10T09:43:42.597Z,8.40
2019-04-10T09:46:11.339Z,8.40
2019-04-10T09:48:40.064Z,8.50
2019-04-10T09:51:09.640Z,8.30
2019-04-10T09:53:39.192Z,8.30
2019-04-10T09:56:07.841Z,8.60
2019-04-10T09:58:36.657Z,9.10
2019-04-10T10:01:10.454Z,9.50
2019-04-10T10:03:40.029Z,9.00
2019-04-10T10:06:09.051Z,8.80
2019-04-10T10:08:37.805Z,8.80
2019-04-10T10:11:06.513Z,9.10
2019-04-10T10:13:35.060Z,9.20
2019-04-10T10:16:03.664Z,9.50
2019-04-10T10:18:33.114Z,9.10
2019-04-10T10:21:01.913Z,9.30
2019-04-10T10:23:30.699Z,9.60
2019-04-10T10:25:59.634Z,9.80
2019-04-10T10:28:29.210Z,10.00
2019-04-10T10:30:57.939Z,9.80
2019-04-10T10:33:26.448Z,9.60
2019-04-10T10:35:55.654Z,9.80
2019-04-10T10:38:25.146Z,9.60
2019-04-10T10:40:54.827Z,9.90
2019-04-10T10:43:24.497Z,10.00
2019-04-10T10:45:53.385Z,9.90
2019-04-10T10:48:22.066Z,9.80
2019-04-10T10:50:50.806Z,9.40
2019-04-10T10:53:19.896Z,9.80
2019-04-10T10:55:49.634Z,9.90
2019-04-10T10:58:18.354Z,10.20
2019-04-10T11:00:47.363Z,10.50
2019-04-10T11:03:16.211Z,10.50
2019-04-10T11:05:44.805Z,11.00
2019-04-10T11:08:13.455Z,10.90
2019-04-10T11:10:42.945Z,11.20
2019-04-10T11:13:12.719Z,11.60
2019-04-10T11:15:45.381Z,11.60
2019-04-10T11:18:11.503Z,11.70
2019-04-10T11:20:41.791Z,11.00
2019-04-10T11:23:12.074Z,11.10
2019-04-10T11:25:41.262Z,11.20
2019-04-10T11:28:09.912Z,11.60
2019-04-10T11:30:38.670Z,12.00
2019-04-10T11:33:08.521Z,11.90
2019-04-10T11:35:39.653Z,11.80
2019-04-10T11:38:08.658Z,11.90
2019-04-10T11:40:37.322Z,12.20
2019-04-10T11:45:52.484Z,11.80
2019-04-10T11:48:18.676Z,12.10
2019-04-10T11:50:48.434Z,12.70
2019-04-10T11:53:18.693Z,12.80
2019-04-10T11:55:52.409Z,13.10
2019-04-10T11:58:17.962Z,12.40
2019-04-10T12:00:51.911Z,12.60
2019-04-10T12:03:18.349Z,13.10
2019-04-10T12:05:49.136Z,13.70
2019-04-10T12:08:36.233Z,13.40
2019-04-10T12:13:19.764Z,13.50
2019-04-10T12:15:48.434Z,14.00
2019-04-10T12:18:16.979Z,13.20
2019-04-10T12:20:45.529Z,12.90
2019-04-10T12:23:14.044Z,13.10
2019-04-10T12:25:43.014Z,12.50
2019-04-10T12:28:11.756Z,13.00
2019-04-10T12:30:40.274Z,13.10
2019-04-10T12:33:09.540Z,13.90
2019-04-10T12:35:38.247Z,14.50
2019-04-10T12:38:10.259Z,14.20
2019-04-10T12:40:38.945Z,13.10
2019-04-10T12:43:08.476Z,12.70
2019-04-10T12:45:38.076Z,13.30
2019-04-10T12:48:06.743Z,12.70
2019-04-10T12:50:35.231Z,13.10
2019-04-10T12:53:03.775Z,13.30
2019-04-10T12:55:32.548Z,13.60
2019-04-10T12:58:09.493Z,12.60
2019-04-10T13:00:31.827Z,12.50
2019-04-10T13:03:00.829Z,12.60
2019-04-10T13:05:29.733Z,12.60
2019-04-10T13:08:05.291Z,12.70
2019-04-10T13:10:29.461Z,12.50
2019-04-10T13:12:58.240Z,12.70
2019-04-10T13:15:27.600Z,12.90
2019-04-10T13:17:57.518Z,12.50
2019-04-10T13:20:26.503Z,12.40
2019-04-10T13:22:56.180Z,12.50
2019-04-10T13:25:25.953Z,12.80
2019-04-10T13:27:54.922Z,12.50
2019-04-10T13:30:24.924Z,12.70
2019-04-10T13:32:53.461Z,12.50
2019-04-10T13:35:22.039Z,13.00
2019-04-10T13:37:50.699Z,12.80
2019-04-10T13:40:19.525Z,13.10
2019-04-10T13:42:49.457Z,13.20
2019-04-10T13:45:19.354Z,13.20
2019-04-10T13:47:48.506Z,13.00
2019-04-10T13:50:18.948Z,12.80
2019-04-10T13:52:53.484Z,12.90
2019-04-10T13:55:22.663Z,13.10
2019-04-10T13:57:51.239Z,13.20
2019-04-10T14:00:28.148Z,13.40
2019-04-10T14:02:56.820Z,13.60
2019-04-10T14:05:27.584Z,14.00
2019-04-10T14:07:56.345Z,14.60
2019-04-10T14:10:25.080Z,13.90
2019-04-10T14:12:53.661Z,14.20
2019-04-10T14:15:22.506Z,13.70
2019-04-10T14:17:52.069Z,13.70
2019-04-10T14:20:21.739Z,13.70
2019-04-10T14:23:10.470Z,13.70
2019-04-10T14:25:56.797Z,14.10
2019-04-10T14:28:29.678Z,14.90
2019-04-10T14:31:00.029Z,15.10
2019-04-10T14:33:28.499Z,14.90
2019-04-10T14:35:57.807Z,13.90
2019-04-10T14:38:27.364Z,13.40
2019-04-10T14:40:56.098Z,13.40
2019-04-10T14:43:24.976Z,13.70
2019-04-10T14:45:54.067Z,13.50
2019-04-10T14:48:22.618Z,13.20
2019-04-10T14:50:51.340Z,13.40
2019-04-10T14:53:20.237Z,13.50
2019-04-10T14:55:49.293Z,13.80
2019-04-10T14:58:25.134Z,13.50
2019-04-10T15:00:49.635Z,13.60
2019-04-10T15:03:20.254Z,13.50
2019-04-10T15:05:52.261Z,13.60
2019-04-10T15:08:19.664Z,13.80
2019-04-10T15:10:48.496Z,13.40
2019-04-10T15:13:20.762Z,13.00
2019-04-10T15:15:48.291Z,13.20
2019-04-10T15:18:16.959Z,13.20
2019-04-10T15:20:45.520Z,13.10
2019-04-10T15:23:15.284Z,13.10
2019-04-10T15:25:52.957Z,13.00
2019-04-10T15:28:21.649Z,12.80
2019-04-10T15:30:50.787Z,12.60
2019-04-10T15:33:20.558Z,12.70
2019-04-10T15:35:49.358Z,13.00
2019-04-10T15:38:21.986Z,13.50
2019-04-10T15:40:52.662Z,12.80
2019-04-10T15:43:27.905Z,12.90
2019-04-10T15:46:00.120Z,13.30
2019-04-10T15:48:29.912Z,13.10
2019-04-10T15:50:58.444Z,12.70
2019-04-10T15:53:26.969Z,13.00
2019-04-10T15:55:55.884Z,12.90
2019-04-10T15:58:25.565Z,13.00
2019-04-10T16:00:54.119Z,12.50
2019-04-10T16:03:22.700Z,12.50
2019-04-10T16:05:51.228Z,12.50
2019-04-10T16:08:20.466Z,12.50
2019-04-10T16:10:50.686Z,12.50
2019-04-10T16:13:36.829Z,12.40
2019-04-10T16:16:07.369Z,12.30
2019-04-10T16:18:36.695Z,12.50
2019-04-10T16:21:06.312Z,12.30
2019-04-10T16:23:40.059Z,12.30
2019-04-10T16:26:09.185Z,11.90
2019-04-10T16:28:37.950Z,12.00
2019-04-10T16:31:07.450Z,12.00
2019-04-10T16:33:39.139Z,11.90
2019-04-10T16:36:19.298Z,11.90
2019-04-10T16:38:49.042Z,11.90
2019-04-10T16:41:17.795Z,11.90
2019-04-10T16:43:46.681Z,11.90
2019-04-10T16:46:15.446Z,11.70
2019-04-10T16:48:44.189Z,11.90
2019-04-10T16:51:12.887Z,11.80
2019-04-10T16:53:41.401Z,11.60
2019-04-10T16:56:09.935Z,11.60
2019-04-10T16:58:38.515Z,12.00
2019-04-10T17:01:08.360Z,12.00
2019-04-10T17:03:38.009Z,11.80
2019-04-10T17:06:08.131Z,11.50
2019-04-10T17:08:37.881Z,11.30
2019-04-10T17:11:07.290Z,11.30
2019-04-10T17:13:35.912Z,11.50
2019-04-10T17:16:05.154Z,11.50
2019-04-10T17:18:34.966Z,11.30
2019-04-10T17:21:04.770Z,11.30
2019-04-10T17:23:34.447Z,11.30
2019-04-10T17:26:03.673Z,11.30
2019-04-10T17:28:52.492Z,11.40
2019-04-10T17:31:22.376Z,11.00
2019-04-10T17:33:52.434Z,10.90
2019-04-10T17:36:21.176Z,10.80
2019-04-10T17:38:50.935Z,10.70
2019-04-10T17:41:19.791Z,10.70
2019-04-10T17:43:49.531Z,10.70
2019-04-10T17:46:19.187Z,10.60
2019-04-10T17:48:47.843Z,10.70
2019-04-10T17:51:17.659Z,10.70
2019-04-10T17:53:47.366Z,10.60
2019-04-10T17:56:16.111Z,10.60
2019-04-10T17:58:46.635Z,10.60
2019-04-10T18:01:16.885Z,10.50
2019-04-10T18:03:51.749Z,10.20
2019-04-10T18:06:15.925Z,10.10
2019-04-10T18:08:45.247Z,9.90
2019-04-10T18:11:14.217Z,9.90
2019-04-10T18:13:42.825Z,9.80
2019-04-10T18:16:12.594Z,9.80
2019-04-10T18:18:42.161Z,9.60
2019-04-10T18:21:11.155Z,9.50
2019-04-10T18:23:40.000Z,9.50
2019-04-10T18:26:08.762Z,9.50
2019-04-10T18:28:38.017Z,9.50
2019-04-10T18:31:06.916Z,9.40
2019-04-10T18:33:36.434Z,9.40
2019-04-10T18:36:05.048Z,9.30
2019-04-10T18:38:33.910Z,9.30
2019-04-10T18:41:05.580Z,9.20
2019-04-10T18:43:32.641Z,9.20
2019-04-10T18:46:09.023Z,9.20
2019-04-10T18:48:32.501Z,9.10
2019-04-10T18:51:01.500Z,9.10
2019-04-10T18:53:30.024Z,9.10
2019-04-10T18:55:58.645Z,9.00
2019-04-10T18:58:29.730Z,8.90
2019-04-10T19:01:14.223Z,8.80
2019-04-10T19:03:52.613Z,8.80
2019-04-10T19:06:22.529Z,8.80
2019-04-10T19:09:04.997Z,8.80
2019-04-10T19:11:25.013Z,8.80
2019-04-10T19:13:53.062Z,9.10
2019-04-10T19:16:22.070Z,9.30
2019-04-10T19:18:50.713Z,9.20
2019-04-10T19:21:19.594Z,9.20
2019-04-10T19:23:48.104Z,9.10
2019-04-10T19:26:18.995Z,8.80
2019-04-10T19:28:48.793Z,9.00
2019-04-10T19:31:23.997Z,8.80
2019-04-10T19:33:51.707Z,8.60
2019-04-10T19:36:20.218Z,8.50
2019-04-10T19:38:49.636Z,8.70
2019-04-10T19:41:25.147Z,8.80
2019-04-10T19:43:48.616Z,8.90
2019-04-10T19:46:17.547Z,8.60
2019-04-10T19:48:48.898Z,8.50
2019-04-10T19:51:16.719Z,8.50
2019-04-10T19:53:45.812Z,8.40
2019-04-10T19:56:14.666Z,8.10
2019-04-10T19:58:44.095Z,8.10
2019-04-10T20:01:12.927Z,8.00
2019-04-10T20:03:41.719Z,8.20
2019-04-10T20:06:10.288Z,8.10
2019-04-10T20:08:39.854Z,8.10
2019-04-10T20:11:08.837Z,8.00
2019-04-10T20:13:38.772Z,7.90
2019-04-10T20:16:07.454Z,7.70
2019-04-10T20:18:37.015Z,7.60
2019-04-10T20:21:05.937Z,7.60
2019-04-10T20:23:34.490Z,7.50
2019-04-10T20:26:03.338Z,7.50
2019-04-10T20:28:33.026Z,7.60
2019-04-10T20:31:01.740Z,7.70
2019-04-10T20:33:30.562Z,7.50
2019-04-10T20:35:59.111Z,7.20
2019-04-10T20:38:27.658Z,7.20
2019-04-10T20:40:56.176Z,7.10
2019-04-10T20:43:25.070Z,7.10
2019-04-10T20:45:53.839Z,7.20
2019-04-10T20:48:22.507Z,7.20
2019-04-10T20:50:52.299Z,7.10
2019-04-10T20:53:22.026Z,6.90
2019-04-10T20:55:51.350Z,6.80
2019-04-10T20:58:22.012Z,6.80
2019-04-10T21:00:51.452Z,6.90
2019-04-10T21:03:20.103Z,6.90
2019-04-10T21:05:48.960Z,6.80
2019-04-10T21:08:17.911Z,6.90
2019-04-10T21:10:47.229Z,6.90
2019-04-10T21:13:16.971Z,7.00
2019-04-10T21:15:46.305Z,7.30
2019-04-10T21:18:15.336Z,7.30
2019-04-10T21:20:45.163Z,7.30
2019-04-10T21:23:13.654Z,7.00
2019-04-10T21:25:42.126Z,7.00
2019-04-10T21:28:11.657Z,7.10
2019-04-10T21:30:42.475Z,6.70
2019-04-10T21:33:16.312Z,6.80
2019-04-10T21:35:45.607Z,6.80
2019-04-10T21:38:15.136Z,6.50
2019-04-10T21:40:43.790Z,6.40
2019-04-10T21:43:12.322Z,6.60
2019-04-10T21:45:41.299Z,6.60
2019-04-10T21:48:10.513Z,6.60
2019-04-10T21:50:39.797Z,6.50
2019-04-10T21:53:08.392Z,6.50
2019-04-10T21:55:37.475Z,6.00
2019-04-10T21:58:06.172Z,6.00
2019-04-10T22:00:36.817Z,6.20
2019-04-10T22:03:06.978Z,6.20
2019-04-10T22:05:37.291Z,6.00
2019-04-10T22:08:07.546Z,5.90
2019-04-10T22:10:37.693Z,5.80
2019-04-10T22:13:06.160Z,5.70
2019-04-10T22:15:39.496Z,5.60
2019-04-10T22:18:09.289Z,5.70
2019-04-10T22:20:38.049Z,5.50
2019-04-10T22:23:07.493Z,5.50
2019-04-10T22:25:37.316Z,5.60
2019-04-10T22:28:06.385Z,5.50
2019-04-10T22:30:35.117Z,5.50
2019-04-10T22:33:05.333Z,5.40
2019-04-10T22:35:34.324Z,5.40
2019-04-10T22:38:02.853Z,5.10
2019-04-10T22:40:31.395Z,5.20
2019-04-10T22:43:00.031Z,5.20
2019-04-10T22:45:31.271Z,5.00
2019-04-10T22:48:00.739Z,4.90
2019-04-10T22:50:29.382Z,4.90
2019-04-10T22:52:59.123Z,4.80
2019-04-10T22:55:28.228Z,4.60
2019-04-10T22:57:56.946Z,4.60
2019-04-10T23:00:28.043Z,4.60
2019-04-10T23:02:57.281Z,4.40
2019-04-10T23:05:26.809Z,4.40
2019-04-10T23:07:55.617Z,4.30
2019-04-10T23:10:24.880Z,4.40
2019-04-10T23:12:59.927Z,4.30
2019-04-10T23:15:23.791Z,4.20
2019-04-10T23:17:52.874Z,4.30
2019-04-10T23:20:21.410Z,4.30
2019-04-10T23:22:50.675Z,4.20
2019-04-10T23:25:20.423Z,4.10
2019-04-10T23:27:51.984Z,4.20
2019-04-10T23:30:19.956Z,4.10
2019-04-10T23:32:48.872Z,4.10
2019-04-10T23:35:17.755Z,4.00
2019-04-10T23:37:46.935Z,4.10
2019-04-10T23:40:16.863Z,4.00
2019-04-10T23:42:46.372Z,4.10
2019-04-10T23:45:15.563Z,4.10
2019-04-10T23:47:44.549Z,4.10
2019-04-10T23:50:15.040Z,4.00
2019-04-10T23:52:44.254Z,3.90
2019-04-10T23:55:13.613Z,3.90
2019-04-10T23:57:43.322Z,3.90
